createdAt,value
2019-03-26T00:03:11.276Z,1.39
2019-03-26T00:07:13.156Z,1.35
2019-03-26T00:11:15.056Z,1.40
2019-03-26T00:15:17.032Z,1.33
2019-03-26T00:19:18.910Z,1.28
2019-03-26T00:23:20.813Z,1.21
2019-03-26T00:27:22.759Z,1.06
2019-03-26T00:31:24.642Z,1.04
2019-03-26T00:35:26.550Z,0.98
2019-03-26T00:39:29.505Z,0.98
2019-03-26T00:43:31.397Z,0.89
2019-03-26T00:47:36.467Z,0.91
2019-03-26T00:51:38.368Z,0.88
2019-03-26T00:55:40.247Z,0.76
2019-03-26T00:59:43.020Z,0.76
2019-03-26T01:03:44.899Z,0.69
2019-03-26T01:07:46.812Z,0.52
2019-03-26T01:11:48.861Z,0.46
2019-03-26T01:15:50.764Z,0.42
2019-03-26T01:19:52.655Z,0.50
2019-03-26T01:23:54.534Z,0.56
2019-03-26T01:27:56.443Z,0.43
2019-03-26T01:31:58.328Z,0.35
2019-03-26T01:36:00.299Z,0.26
2019-03-26T01:40:02.266Z,0.23
2019-03-26T01:44:05.363Z,0.27
2019-03-26T01:48:07.447Z,0.30
2019-03-26T01:52:09.343Z,0.23
2019-03-26T01:56:11.244Z,0.30
2019-03-26T02:00:13.436Z,0.37
2019-03-26T02:04:15.336Z,0.39
2019-03-26T02:08:17.234Z,0.31
2019-03-26T02:12:19.132Z,0.27
2019-03-26T02:16:28.077Z,0.45
2019-03-26T02:20:30.035Z,0.43
2019-03-26T02:24:31.972Z,0.50
2019-03-26T02:28:33.863Z,0.62
2019-03-26T02:32:35.782Z,0.78
2019-03-26T02:36:37.664Z,0.87
2019-03-26T02:40:39.559Z,0.78
2019-03-26T02:44:41.458Z,0.73
2019-03-26T02:48:43.359Z,0.71
2019-03-26T02:52:45.239Z,0.79
2019-03-26T02:56:47.153Z,0.86
2019-03-26T03:00:49.048Z,0.85
2019-03-26T03:04:50.937Z,0.85
2019-03-26T03:08:52.843Z,0.82
2019-03-26T03:12:54.721Z,0.81
2019-03-26T03:16:57.586Z,0.81
2019-03-26T03:20:59.484Z,0.85
2019-03-26T03:25:01.440Z,0.83
2019-03-26T03:29:03.338Z,1.01
2019-03-26T03:33:05.237Z,1.00
2019-03-26T03:37:07.138Z,0.94
2019-03-26T03:41:09.117Z,0.95
2019-03-26T03:45:12.812Z,0.98
2019-03-26T03:49:16.648Z,0.97
2019-03-26T03:53:20.454Z,0.95
2019-03-26T03:57:25.704Z,1.00
2019-03-26T04:01:27.608Z,1.08
2019-03-26T04:05:29.494Z,1.04
2019-03-26T04:09:31.466Z,1.06
2019-03-26T04:13:33.356Z,1.06
2019-03-26T04:17:35.255Z,1.04
2019-03-26T04:21:37.169Z,1.15
2019-03-26T04:25:39.057Z,1.18
2019-03-26T04:29:40.957Z,1.15
2019-03-26T04:33:43.182Z,1.10
2019-03-26T04:37:45.080Z,1.15
2019-03-26T04:41:46.985Z,1.22
2019-03-26T04:45:48.897Z,1.22
2019-03-26T04:49:50.781Z,1.15
2019-03-26T04:53:52.779Z,1.15
2019-03-26T04:57:54.662Z,1.21
2019-03-26T05:02:15.168Z,1.24
2019-03-26T05:06:17.487Z,1.25
2019-03-26T05:10:19.408Z,1.27
2019-03-26T05:14:21.318Z,1.29
2019-03-26T05:18:23.236Z,1.32
2019-03-26T05:22:25.131Z,1.38
2019-03-26T05:26:27.102Z,1.35
2019-03-26T05:30:28.990Z,1.34
2019-03-26T05:34:30.893Z,1.39
2019-03-26T05:38:32.782Z,1.49
2019-03-26T05:42:34.683Z,1.46
2019-03-26T05:46:36.609Z,1.47
2019-03-26T05:50:38.501Z,1.46
2019-03-26T05:54:40.408Z,1.49
2019-03-26T05:58:43.285Z,1.53
2019-03-26T06:02:45.209Z,1.52
2019-03-26T06:06:47.154Z,1.57
2019-03-26T06:10:49.059Z,1.49
2019-03-26T06:14:50.972Z,1.56
2019-03-26T06:18:52.867Z,1.55
2019-03-26T06:22:54.836Z,1.48
2019-03-26T06:26:56.752Z,1.54
2019-03-26T06:30:58.662Z,1.58
2019-03-26T06:35:00.601Z,1.74
2019-03-26T06:39:02.636Z,1.84
2019-03-26T06:43:04.621Z,1.89
2019-03-26T06:47:07.497Z,1.94
2019-03-26T06:51:09.471Z,2.06
2019-03-26T06:55:13.728Z,2.16
2019-03-26T06:59:34.606Z,2.19
2019-03-26T07:03:43.968Z,2.26
2019-03-26T07:07:45.925Z,2.32
2019-03-26T07:11:47.836Z,2.36
2019-03-26T07:15:50.099Z,2.35
2019-03-26T07:19:55.108Z,2.43
2019-03-26T07:23:57.015Z,2.46
2019-03-26T07:27:58.915Z,2.48
2019-03-26T07:32:01.573Z,2.53
2019-03-26T07:36:03.493Z,2.59
2019-03-26T07:40:07.705Z,2.73
2019-03-26T07:44:10.584Z,2.93
2019-03-26T07:48:12.538Z,2.95
2019-03-26T07:52:15.727Z,3.15
2019-03-26T07:56:17.614Z,3.19
2019-03-26T08:00:35.298Z,3.26
2019-03-26T08:04:37.231Z,3.36
2019-03-26T08:08:40.666Z,3.55
2019-03-26T08:12:43.351Z,3.60
2019-03-26T08:16:45.254Z,3.71
2019-03-26T08:20:47.127Z,3.76
2019-03-26T08:24:49.231Z,3.82
2019-03-26T08:28:51.127Z,3.96
2019-03-26T08:32:53.032Z,4.07
2019-03-26T08:36:54.940Z,4.14
2019-03-26T08:40:56.828Z,4.26
2019-03-26T08:44:58.740Z,4.62
2019-03-26T08:49:00.650Z,4.74
2019-03-26T08:53:02.544Z,4.97
2019-03-26T08:57:04.526Z,5.17
2019-03-26T09:01:06.437Z,5.31
2019-03-26T09:05:10.221Z,5.44
2019-03-26T09:09:12.293Z,5.45
2019-03-26T09:13:14.195Z,5.50
2019-03-26T09:17:19.720Z,5.66
2019-03-26T09:21:20.770Z,5.67
2019-03-26T09:25:22.744Z,5.83
2019-03-26T09:29:24.661Z,6.06
2019-03-26T09:33:27.068Z,6.03
2019-03-26T09:37:28.981Z,6.08
2019-03-26T09:41:30.871Z,5.89
2019-03-26T09:45:33.114Z,5.98
2019-03-26T09:49:35.021Z,6.05
2019-03-26T09:53:36.925Z,6.03
2019-03-26T09:57:38.901Z,5.91
2019-03-26T10:01:40.778Z,5.72
2019-03-26T10:05:43.489Z,5.69
2019-03-26T10:09:57.332Z,5.26
2019-03-26T10:13:59.245Z,5.25
2019-03-26T10:18:01.873Z,5.12
2019-03-26T10:22:03.760Z,5.18
2019-03-26T10:26:05.783Z,5.35
2019-03-26T10:30:14.767Z,5.29
2019-03-26T10:34:17.108Z,5.63
2019-03-26T10:38:19.011Z,5.83
2019-03-26T10:42:20.980Z,5.89
2019-03-26T10:46:22.886Z,5.91
2019-03-26T10:50:24.861Z,6.08
2019-03-26T10:54:26.769Z,6.13
2019-03-26T10:58:28.924Z,6.40
2019-03-26T11:02:30.893Z,6.81
2019-03-26T11:06:33.749Z,7.05
2019-03-26T11:10:35.682Z,7.01
2019-03-26T11:14:37.581Z,6.64
2019-03-26T11:18:39.475Z,6.48
2019-03-26T11:22:41.356Z,6.49
2019-03-26T11:26:43.531Z,7.05
2019-03-26T11:30:45.432Z,7.37
2019-03-26T11:34:47.331Z,7.45
2019-03-26T11:38:49.214Z,7.21
2019-03-26T11:42:51.111Z,7.18
2019-03-26T11:46:53.019Z,7.38
2019-03-26T11:50:54.921Z,7.56
2019-03-26T11:54:56.803Z,8.13
2019-03-26T11:58:58.738Z,8.19
2019-03-26T12:03:00.687Z,7.88
2019-03-26T12:07:02.582Z,7.28
2019-03-26T12:11:04.474Z,7.30
2019-03-26T12:15:13.874Z,7.92
2019-03-26T12:19:15.762Z,8.75
2019-03-26T12:23:17.655Z,9.47
2019-03-26T12:27:19.569Z,9.60
2019-03-26T12:31:21.527Z,9.05
2019-03-26T12:35:29.695Z,8.33
2019-03-26T12:39:31.597Z,7.84
2019-03-26T12:43:33.485Z,7.88
2019-03-26T12:47:36.352Z,8.01
2019-03-26T12:51:39.434Z,7.83
2019-03-26T12:55:41.477Z,7.83
2019-03-26T12:59:43.580Z,7.73
2019-03-26T13:03:45.476Z,7.62
2019-03-26T13:07:47.371Z,7.94
2019-03-26T13:11:49.253Z,7.77
2019-03-26T13:16:09.965Z,7.46
2019-03-26T13:20:22.035Z,7.42
2019-03-26T13:24:24.014Z,7.38
2019-03-26T13:28:25.954Z,7.30
2019-03-26T13:32:27.879Z,7.58
2019-03-26T13:36:29.758Z,8.20
2019-03-26T13:40:31.705Z,8.28
2019-03-26T13:44:33.607Z,8.27
2019-03-26T13:48:35.499Z,8.30
2019-03-26T13:52:37.387Z,8.06
2019-03-26T13:56:39.288Z,7.88
2019-03-26T14:00:41.482Z,8.14
2019-03-26T14:04:43.661Z,8.12
2019-03-26T14:08:45.588Z,8.09
2019-03-26T14:12:47.467Z,8.40
2019-03-26T14:16:49.369Z,8.38
2019-03-26T14:20:51.263Z,8.21
2019-03-26T14:24:53.162Z,7.86
2019-03-26T14:28:55.054Z,7.91
2019-03-26T14:32:56.936Z,8.10
2019-03-26T14:36:58.833Z,8.13
2019-03-26T14:41:01.581Z,7.78
2019-03-26T14:45:04.860Z,7.40
2019-03-26T14:49:07.706Z,7.54
2019-03-26T14:53:09.606Z,8.12
2019-03-26T14:57:11.499Z,8.45
2019-03-26T15:01:13.384Z,8.62
2019-03-26T15:05:15.480Z,8.49
2019-03-26T15:09:17.363Z,8.30
2019-03-26T15:13:19.259Z,8.45
2019-03-26T15:17:21.522Z,8.01
2019-03-26T15:21:23.432Z,7.65
2019-03-26T15:25:25.328Z,7.35
2019-03-26T15:29:27.210Z,7.47
2019-03-26T15:33:29.111Z,7.62
2019-03-26T15:37:31.095Z,7.71
2019-03-26T15:41:33.073Z,7.63
2019-03-26T15:45:35.064Z,7.58
2019-03-26T15:49:42.747Z,7.40
2019-03-26T15:53:44.634Z,7.31
2019-03-26T15:57:47.936Z,7.23
2019-03-26T16:01:49.810Z,7.04
2019-03-26T16:05:53.305Z,6.84
2019-03-26T16:09:55.269Z,6.78
2019-03-26T16:13:57.181Z,6.80
2019-03-26T16:17:59.062Z,6.73
2019-03-26T16:22:01.563Z,6.60
2019-03-26T16:26:03.424Z,6.64
2019-03-26T16:30:08.135Z,6.61
2019-03-26T16:34:13.306Z,6.47
2019-03-26T16:42:24.121Z,6.53
2019-03-26T16:46:26.016Z,6.35
2019-03-26T16:50:27.909Z,6.30
2019-03-26T16:54:29.947Z,6.08
2019-03-26T16:58:31.829Z,5.90
2019-03-26T17:02:35.992Z,5.94
2019-03-26T17:06:37.892Z,5.84
2019-03-26T17:10:39.867Z,5.84
2019-03-26T17:14:41.747Z,5.97
2019-03-26T17:18:43.864Z,5.96
2019-03-26T17:22:45.761Z,5.95
2019-03-26T17:26:47.660Z,5.86
2019-03-26T17:30:49.560Z,5.74
2019-03-26T17:34:51.446Z,5.69
2019-03-26T17:38:53.343Z,5.73
2019-03-26T17:42:55.242Z,5.74
2019-03-26T17:46:57.140Z,5.59
2019-03-26T17:50:59.062Z,5.54
2019-03-26T17:55:00.947Z,5.45
2019-03-26T17:59:02.851Z,5.33
2019-03-26T18:03:06.421Z,5.36
2019-03-26T18:07:08.323Z,5.39
2019-03-26T18:11:10.251Z,5.45
2019-03-26T18:15:12.153Z,5.42
2019-03-26T18:19:14.107Z,5.46
2019-03-26T18:23:16.003Z,5.38
2019-03-26T18:27:17.898Z,5.36
2019-03-26T18:31:29.054Z,5.21
2019-03-26T18:35:31.943Z,5.13
2019-03-26T18:39:33.923Z,5.12
2019-03-26T18:43:35.892Z,5.07
2019-03-26T18:47:37.969Z,5.11
2019-03-26T18:51:39.854Z,5.14
2019-03-26T18:55:41.746Z,5.08
2019-03-26T18:59:43.858Z,5.14
2019-03-26T19:03:45.749Z,5.12
2019-03-26T19:07:47.651Z,5.14
2019-03-26T19:11:49.541Z,5.07
2019-03-26T19:15:51.422Z,5.03
2019-03-26T19:19:53.399Z,5.06
2019-03-26T19:24:03.909Z,5.05
2019-03-26T19:28:00.161Z,5.05
2019-03-26T19:32:02.560Z,5.11
2019-03-26T19:36:04.690Z,5.06
2019-03-26T19:40:08.870Z,5.09
2019-03-26T19:44:10.788Z,5.01
2019-03-26T19:48:23.182Z,5.01
2019-03-26T19:52:25.319Z,5.01
2019-03-26T19:56:27.248Z,4.95
2019-03-26T20:00:29.142Z,4.93
2019-03-26T20:04:31.042Z,4.93
2019-03-26T20:08:32.941Z,4.96
2019-03-26T20:12:34.841Z,4.94
2019-03-26T20:16:42.110Z,4.97
2019-03-26T20:20:40.333Z,4.93
2019-03-26T20:24:42.238Z,4.89
2019-03-26T20:28:44.127Z,4.89
2019-03-26T20:32:46.050Z,4.86
2019-03-26T20:36:48.013Z,4.88
2019-03-26T20:40:49.931Z,4.82
2019-03-26T20:44:51.815Z,4.78
2019-03-26T20:48:53.711Z,4.86
2019-03-26T20:52:55.617Z,4.81
2019-03-26T20:56:57.508Z,4.74
2019-03-26T21:00:59.391Z,4.77
2019-03-26T21:05:01.477Z,4.84
2019-03-26T21:09:04.707Z,4.76
2019-03-26T21:13:06.815Z,4.78
2019-03-26T21:17:08.825Z,4.76
2019-03-26T21:21:10.701Z,4.72
2019-03-26T21:25:12.732Z,4.70
2019-03-26T21:29:14.634Z,4.69
2019-03-26T21:33:16.525Z,4.68
2019-03-26T21:37:18.508Z,4.72
2019-03-26T21:41:20.386Z,4.74
2019-03-26T21:45:26.873Z,4.62
2019-03-26T21:49:28.796Z,4.58
2019-03-26T21:53:30.694Z,4.55
2019-03-26T21:57:32.602Z,4.49
2019-03-26T22:01:34.821Z,4.48
2019-03-26T22:05:36.725Z,4.52
2019-03-26T22:09:38.622Z,4.53
2019-03-26T22:13:42.080Z,4.54
2019-03-26T22:17:44.032Z,4.52
2019-03-26T22:21:45.911Z,4.52
2019-03-26T22:25:47.821Z,4.60
2019-03-26T22:29:49.707Z,4.60
2019-03-26T22:33:51.604Z,4.41
2019-03-26T22:37:53.500Z,4.37
2019-03-26T22:41:55.384Z,4.34
2019-03-26T22:45:57.280Z,4.30
2019-03-26T22:49:59.187Z,4.22
2019-03-26T22:54:01.508Z,4.18
2019-03-26T22:58:03.406Z,4.21
2019-03-26T23:02:05.630Z,4.17
2019-03-26T23:06:07.600Z,4.12
2019-03-26T23:10:10.401Z,4.22
2019-03-26T23:14:12.302Z,4.19
2019-03-26T23:18:14.285Z,4.13
2019-03-26T23:22:16.179Z,4.15
2019-03-26T23:26:18.075Z,4.14
2019-03-26T23:30:20.709Z,4.15
2019-03-26T23:34:22.598Z,4.05
2019-03-26T23:38:32.421Z,4.04
2019-03-26T23:42:34.315Z,4.02
2019-03-26T23:46:37.190Z,4.02
2019-03-26T23:50:39.071Z,4.03
2019-03-26T23:54:40.990Z,4.02
2019-03-26T23:58:43.981Z,3.90
